Baltimore, Maryland
Traffic Map
Current Weather Conditions
Baltimore, Maryland
Few Clouds
Few Clouds
60°
Feels Like: 60°
Wind Chill: 60° Ceiling: Unl
Heat Index: 60° Visibility: 10mi
Dew Point: 35° Wind: 3mph
Humidity: 39% Direction: 180° (S)
Pressure: 30.29in Gusts: 0mph
Raw Report DataKBWI 172154Z 18003KT 10SM FEW250 16/02 A3029 RMK AO2 SLP256 T01560017
Traffic Incident Summary
Active as of:
Severity:
Category:
InformationThere was an issue retrieving the traffic information for this location. Please try a different location or try again shortly.
Advertisements